East Chevington, United Kingdom
Current Conditions -  °F | °C
As of 11:50 AM on Thursday 30 Oct 2014 (Local Time) from EGQM Reporting Station
Haze Haze  
Wind Chill: 54°   Ceiling: 500
Heat Index: 54°   Visibility: 5mi
Dew Point: 54°   Wind: 8mph
Humidity: 100%   Direction: 180°S
Pressure: 29.94"   Gusts: NA
Location:  55.28°N, 1.58°W
Report Text: EGQM 301150Z AUTO 18007KT 8000 BR BKN005/// BKN090/// 12/12 Q1014
Loading
Personal Weather Stations






























Interactive Weather Map
Tropical Storm Tracking
New forecast layout! Learn more

10-Day Weather Forecast

Advertisements
Track Severe Weather on mobile